Time;durP1;ratioP1;P1;durP2;ratioP2;P2;SDS_P1;SDS_P2;PMS_P1;PMS_P2;Temp;Humidity;BMP_temperature;BMP_pressure;BME280_temperature;BME280_humidity;BME280_pressure;Samples;Min_cycle;Max_cycle;Signal;HPM_P1;HPM_P2
2022/08/23 00:01:55;;;;;;;;;;;18.10;99.40;;;;;;5096116;28;19995;-69
2022/08/23 00:04:23;;;;;;;;;;;18.10;99.50;;;;;;5095675;28;19943;-68
2022/08/23 00:06:50;;;;;;;;;;;18.10;99.50;;;;;;5095827;28;19909;-69
2022/08/23 00:09:18;;;;;;;;;;;18.10;99.80;;;;;;5095910;28;19930;-69
2022/08/23 00:11:47;;;;;;;;;;;18.30;99.70;;;;;;5095701;28;19908;-69
2022/08/23 00:14:21;;;;;;;;;;;18.40;99.50;;;;;;5095543;28;19958;-69
2022/08/23 00:16:48;;;;;;;;;;;18.50;99.60;;;;;;5095711;28;19951;-69
2022/08/23 00:19:16;;;;;;;;;;;18.50;99.30;;;;;;5095430;28;19908;-69
2022/08/23 00:21:44;;;;;;;;;;;18.50;99.50;;;;;;5095561;28;19908;-69
2022/08/23 00:24:12;;;;;;;;;;;18.50;99.50;;;;;;5095195;28;19922;-67
2022/08/23 00:26:51;;;;;;;;;;;18.60;99.30;;;;;;5095374;28;19908;-67
2022/08/23 00:29:18;;;;;;;;;;;18.60;99.10;;;;;;5094938;28;19908;-68
2022/08/23 00:31:45;;;;;;;;;;;18.50;99.20;;;;;;5095235;28;19951;-68
2022/08/23 00:34:11;;;;;;;;;;;18.60;98.60;;;;;;5095027;28;20011;-67
2022/08/23 00:36:39;;;;;;;;;;;18.60;99.00;;;;;;5095315;28;19995;-67
2022/08/23 00:39:05;;;;;;;;;;;18.70;98.60;;;;;;5095446;28;19908;-68
2022/08/23 00:41:33;;;;;;;;;;;18.80;98.90;;;;;;5095255;28;19915;-68
2022/08/23 00:50:12;;;;;;;;;;;18.80;99.00;;;;;;5052603;28;20391;-67
2022/08/23 00:52:56;;;;;;;;;;;18.90;99.00;;;;;;5052229;28;20389;-68
2022/08/23 00:55:24;;;;;;;;;;;19.00;98.90;;;;;;5083137;28;19908;-68
2022/08/23 00:57:51;;;;;;;;;;;19.00;98.70;;;;;;5094718;28;19908;-68
2022/08/23 01:00:18;;;;;;;;;;;19.10;98.40;;;;;;5094510;28;19908;-68
2022/08/23 01:02:45;;;;;;;;;;;19.10;98.80;;;;;;5094752;28;19920;-68
2022/08/23 01:05:14;;;;;;;;;;;19.30;98.40;;;;;;5094587;28;19915;-67
2022/08/23 01:07:46;;;;;;;;;;;19.30;98.30;;;;;;5094642;28;19977;-68
2022/08/23 01:10:18;;;;;;;;;;;19.50;98.30;;;;;;5093866;28;19908;-67
2022/08/23 01:12:47;;;;;;;;;;;19.90;97.70;;;;;;5094547;28;19908;-67
2022/08/23 01:15:37;;;;;;;;;;;20.50;96.80;;;;;;5094564;28;19946;-68
2022/08/23 01:18:06;;;;;;;;;;;20.60;97.00;;;;;;5088478;28;20003;-67
2022/08/23 01:20:52;;;;;;;;;;;21.30;96.40;;;;;;5094463;28;19954;-67
2022/08/23 01:23:25;;;;;;;;;;;21.50;95.90;;;;;;5093905;28;19916;-67
2022/08/23 01:25:51;;;;;;;;;;;21.50;95.70;;;;;;5094395;28;19923;-67
2022/08/23 01:28:18;;;;;;;;;;;21.20;95.90;;;;;;5094279;28;19939;-68
2022/08/23 01:30:46;;;;;;;;;;;21.10;95.20;;;;;;5094183;28;19952;-67
2022/08/23 01:33:13;;;;;;;;;;;21.10;95.40;;;;;;5094033;28;19908;-67
2022/08/23 01:35:48;;;;;;;;;;;20.80;95.90;;;;;;5094238;28;19998;-66
2022/08/23 01:38:15;;;;;;;;;;;20.50;96.60;;;;;;5093944;28;19908;-67
2022/08/23 01:40:43;;;;;;;;;;;20.40;96.50;;;;;;5093962;28;19962;-67
2022/08/23 01:43:12;;;;;;;;;;;20.30;95.90;;;;;;5094032;28;19916;-67
2022/08/23 01:45:39;;;;;;;;;;;20.20;96.20;;;;;;5093899;28;19920;-66
2022/08/23 01:48:05;;;;;;;;;;;20.20;96.60;;;;;;5093786;28;19999;-68
2022/08/23 01:50:33;;;;;;;;;;;20.40;96.00;;;;;;5093862;28;19915;-68
2022/08/23 01:53:00;;;;;;;;;;;20.50;95.30;;;;;;5093898;28;20279;-68
2022/08/23 01:55:27;;;;;;;;;;;20.50;95.20;;;;;;5093919;28;19908;-67
2022/08/23 01:57:55;;;;;;;;;;;20.50;95.20;;;;;;5093832;28;19940;-68
2022/08/23 02:00:26;;;;;;;;;;;20.40;95.60;;;;;;5093556;28;20293;-68
2022/08/23 02:02:52;;;;;;;;;;;20.20;96.10;;;;;;5093614;28;19938;-68
2022/08/23 02:05:19;;;;;;;;;;;20.20;96.20;;;;;;5087799;28;20030;-68
2022/08/23 02:07:47;;;;;;;;;;;20.30;96.30;;;;;;5061641;28;19919;-68
2022/08/23 02:10:14;;;;;;;;;;;20.20;96.40;;;;;;5052479;28;19940;-69
2022/08/23 02:12:41;;;;;;;;;;;20.20;95.80;;;;;;5052771;28;20352;-66
2022/08/23 02:15:08;;;;;;;;;;;20.20;95.80;;;;;;5074688;28;19954;-66
2022/08/23 02:17:34;;;;;;;;;;;20.10;95.50;;;;;;5093343;28;19908;-67
2022/08/23 02:20:03;;;;;;;;;;;20.10;95.50;;;;;;5092887;28;19922;-67
2022/08/23 02:22:30;;;;;;;;;;;20.10;95.90;;;;;;5093036;28;19909;-67
2022/08/23 02:24:57;;;;;;;;;;;20.00;95.80;;;;;;5093577;28;19908;-67
2022/08/23 02:27:24;;;;;;;;;;;20.10;96.40;;;;;;5093363;28;20408;-67
2022/08/23 02:29:51;;;;;;;;;;;20.00;95.80;;;;;;5092181;28;20279;-67
2022/08/23 02:32:18;;;;;;;;;;;20.00;95.90;;;;;;5093140;28;19946;-67
2022/08/23 02:34:45;;;;;;;;;;;20.00;96.00;;;;;;5093386;28;19961;-67
2022/08/23 02:37:13;;;;;;;;;;;20.00;96.30;;;;;;5093421;28;19952;-67
2022/08/23 02:39:40;;;;;;;;;;;20.20;95.90;;;;;;5093437;28;19908;-67
2022/08/23 02:42:07;;;;;;;;;;;20.40;96.30;;;;;;5093219;28;19947;-66
2022/08/23 02:44:34;;;;;;;;;;;20.50;95.80;;;;;;5093236;28;19922;-65
2022/08/23 02:47:01;;;;;;;;;;;20.60;95.50;;;;;;5093317;28;20359;-65
2022/08/23 02:49:28;;;;;;;;;;;20.60;95.70;;;;;;5093419;28;19915;-68
2022/08/23 02:51:56;;;;;;;;;;;20.50;95.80;;;;;;5093360;28;19909;-69
2022/08/23 02:54:22;;;;;;;;;;;20.60;95.30;;;;;;5092625;28;20278;-68
2022/08/23 02:56:50;;;;;;;;;;;20.60;95.60;;;;;;5091029;28;19908;-66
2022/08/23 02:59:17;;;;;;;;;;;20.50;95.40;;;;;;5092818;28;19962;-66
2022/08/23 03:01:47;;;;;;;;;;;20.40;95.70;;;;;;5083299;28;20007;-68
2022/08/23 03:04:13;;;;;;;;;;;20.20;96.10;;;;;;5073040;28;19924;-68
2022/08/23 03:06:40;;;;;;;;;;;20.10;96.00;;;;;;5071809;28;19909;-68
2022/08/23 03:09:07;;;;;;;;;;;20.00;96.30;;;;;;5072730;28;20320;-67
2022/08/23 03:11:35;;;;;;;;;;;20.10;97.10;;;;;;5072829;28;19935;-67
2022/08/23 03:14:02;;;;;;;;;;;18.20;99.90;;;;;;5072548;28;19913;-69
2022/08/23 03:16:28;;;;;;;;;;;16.60;99.90;;;;;;5072486;28;19915;-67
2022/08/23 03:18:55;;;;;;;;;;;15.50;99.90;;;;;;5072722;28;19916;-68
2022/08/23 03:21:22;;;;;;;;;;;15.20;99.90;;;;;;5072648;28;19912;-68
2022/08/23 03:23:49;;;;;;;;;;;14.90;99.90;;;;;;5072538;28;19970;-70
2022/08/23 03:26:16;;;;;;;;;;;14.90;99.90;;;;;;5072548;28;20359;-68
2022/08/23 03:28:44;;;;;;;;;;;14.80;99.90;;;;;;5065282;28;19967;-67
2022/08/23 03:31:11;;;;;;;;;;;14.80;99.90;;;;;;5067258;28;19909;-68
2022/08/23 03:33:38;;;;;;;;;;;14.80;99.90;;;;;;5054977;28;19908;-67
2022/08/23 03:36:06;;;;;;;;;;;14.70;99.90;;;;;;5055065;28;19916;-68
2022/08/23 03:38:33;;;;;;;;;;;14.60;99.90;;;;;;5091750;28;19908;-67
2022/08/23 03:41:00;;;;;;;;;;;14.50;99.90;;;;;;5096196;28;19908;-67
2022/08/23 03:43:27;;;;;;;;;;;14.40;99.90;;;;;;5096155;28;20255;-67
2022/08/23 03:45:54;;;;;;;;;;;14.20;99.90;;;;;;5095864;28;19927;-67
2022/08/23 03:48:21;;;;;;;;;;;14.00;99.90;;;;;;5096093;28;20039;-68
2022/08/23 03:50:48;;;;;;;;;;;13.80;99.90;;;;;;5096096;28;20333;-67
2022/08/23 03:53:15;;;;;;;;;;;13.60;99.90;;;;;;5096158;28;20015;-67
2022/08/23 03:55:42;;;;;;;;;;;13.40;99.90;;;;;;5095932;28;19950;-68
2022/08/23 03:58:09;;;;;;;;;;;13.30;99.90;;;;;;5095731;28;20278;-67
2022/08/23 04:00:37;;;;;;;;;;;13.20;99.90;;;;;;5095940;28;20278;-67
2022/08/23 04:03:04;;;;;;;;;;;12.80;99.90;;;;;;5095667;28;19916;-68
2022/08/23 04:05:30;;;;;;;;;;;12.50;99.90;;;;;;5095956;28;19909;-68
2022/08/23 04:07:57;;;;;;;;;;;12.30;99.90;;;;;;5094517;28;19915;-68
2022/08/23 04:10:24;;;;;;;;;;;12.20;99.90;;;;;;5094152;28;19912;-69
2022/08/23 04:12:52;;;;;;;;;;;12.00;99.90;;;;;;5095131;28;20007;-67
2022/08/23 04:15:19;;;;;;;;;;;11.80;99.90;;;;;;5094954;28;19908;-68
2022/08/23 04:17:46;;;;;;;;;;;11.60;99.90;;;;;;5093693;28;20017;-68
2022/08/23 04:20:12;;;;;;;;;;;11.80;99.90;;;;;;5093504;28;19914;-68
2022/08/23 04:22:39;;;;;;;;;;;11.60;99.90;;;;;;5093732;28;19919;-67
2022/08/23 04:25:06;;;;;;;;;;;11.30;99.90;;;;;;5093648;28;20350;-68
2022/08/23 04:27:33;;;;;;;;;;;11.20;99.90;;;;;;5093676;28;19995;-67
2022/08/23 04:29:59;;;;;;;;;;;11.20;99.90;;;;;;5093831;28;19915;-68
2022/08/23 04:32:26;;;;;;;;;;;11.30;99.90;;;;;;5094907;28;20248;-67
2022/08/23 04:34:53;;;;;;;;;;;11.10;99.90;;;;;;5095285;28;19908;-67
2022/08/23 04:37:19;;;;;;;;;;;10.90;99.90;;;;;;5093854;28;19974;-67
2022/08/23 04:42:30;;;;;;;;;;;10.70;99.90;;;;;;5095404;28;20362;-67
2022/08/23 04:44:58;;;;;;;;;;;10.80;99.90;;;;;;5094542;28;19922;-67
2022/08/23 04:47:25;;;;;;;;;;;10.70;99.90;;;;;;5096658;28;19912;-68
2022/08/23 04:49:52;;;;;;;;;;;10.60;99.90;;;;;;5094812;28;19923;-67
2022/08/23 04:52:18;;;;;;;;;;;10.50;99.90;;;;;;5094728;28;20235;-68
2022/08/23 04:54:45;;;;;;;;;;;10.40;99.90;;;;;;5094939;28;20007;-68
2022/08/23 04:57:14;;;;;;;;;;;10.30;99.90;;;;;;5094830;28;19912;-67
2022/08/23 04:59:41;;;;;;;;;;;10.20;99.90;;;;;;5094824;28;19909;-68
2022/08/23 05:02:08;;;;;;;;;;;10.20;99.90;;;;;;5094374;28;20367;-68
2022/08/23 05:04:35;;;;;;;;;;;10.20;99.90;;;;;;5094530;28;19916;-67
2022/08/23 05:07:02;;;;;;;;;;;10.00;99.90;;;;;;5094699;28;19920;-70
2022/08/23 05:09:29;;;;;;;;;;;10.00;99.90;;;;;;5094490;28;19914;-69
2022/08/23 05:11:56;;;;;;;;;;;10.00;99.90;;;;;;5094568;28;20362;-69
2022/08/23 05:14:23;;;;;;;;;;;9.90;99.90;;;;;;5093041;28;19919;-69
2022/08/23 05:16:50;;;;;;;;;;;9.90;99.90;;;;;;5094280;28;19992;-69
2022/08/23 05:19:16;;;;;;;;;;;9.90;99.90;;;;;;5094439;28;19920;-69
2022/08/23 05:21:44;;;;;;;;;;;9.70;99.90;;;;;;5094417;28;19914;-69
2022/08/23 05:24:10;;;;;;;;;;;9.60;99.90;;;;;;5093901;28;19938;-69
2022/08/23 05:26:37;;;;;;;;;;;9.60;99.90;;;;;;5094324;28;19908;-69
2022/08/23 05:29:04;;;;;;;;;;;9.50;99.90;;;;;;5094213;28;19908;-69
2022/08/23 05:31:31;;;;;;;;;;;9.60;99.90;;;;;;5093987;28;20074;-69
2022/08/23 05:33:58;;;;;;;;;;;9.60;99.90;;;;;;5094118;28;19908;-69
2022/08/23 05:36:24;;;;;;;;;;;9.50;99.90;;;;;;5093931;28;19915;-69
2022/08/23 05:38:52;;;;;;;;;;;9.50;99.90;;;;;;5094144;28;20315;-69
2022/08/23 05:41:19;;;;;;;;;;;9.50;99.90;;;;;;5093822;28;20015;-69
2022/08/23 05:43:47;;;;;;;;;;;9.50;99.90;;;;;;5093947;28;19943;-69
2022/08/23 05:46:18;;;;;;;;;;;9.40;99.90;;;;;;5093466;28;20267;-69
2022/08/23 05:48:46;;;;;;;;;;;9.50;99.90;;;;;;5093873;28;19954;-69
2022/08/23 05:51:15;;;;;;;;;;;9.50;99.90;;;;;;5093907;28;19908;-70
2022/08/23 05:53:42;;;;;;;;;;;9.50;99.90;;;;;;5093877;28;19988;-69
2022/08/23 05:56:19;;;;;;;;;;;9.50;99.90;;;;;;5092676;28;19908;-69
2022/08/23 05:58:46;;;;;;;;;;;9.40;99.90;;;;;;5093710;28;19912;-69
2022/08/23 06:01:14;;;;;;;;;;;9.30;99.90;;;;;;5093374;28;19915;-69
2022/08/23 06:03:41;;;;;;;;;;;9.20;99.90;;;;;;5093700;28;19970;-69
2022/08/23 06:06:09;;;;;;;;;;;9.30;99.90;;;;;;5093422;28;19915;-68
2022/08/23 06:08:37;;;;;;;;;;;9.20;99.90;;;;;;5093648;28;20053;-68
2022/08/23 06:11:06;;;;;;;;;;;9.30;99.90;;;;;;5093617;28;19908;-69
2022/08/23 06:13:32;;;;;;;;;;;9.30;99.90;;;;;;5093562;28;20400;-69
2022/08/23 06:15:59;;;;;;;;;;;9.40;99.90;;;;;;5093458;28;19915;-68
2022/08/23 06:18:26;;;;;;;;;;;9.20;99.90;;;;;;5093323;28;19909;-69
2022/08/23 06:21:00;;;;;;;;;;;9.30;99.90;;;;;;5092374;28;19908;-69
2022/08/23 06:23:27;;;;;;;;;;;9.30;99.90;;;;;;5093312;28;20003;-68
2022/08/23 06:25:53;;;;;;;;;;;9.10;99.90;;;;;;5093859;28;20374;-70
2022/08/23 06:28:20;;;;;;;;;;;9.10;99.90;;;;;;5093223;28;19908;-69
2022/08/23 06:30:47;;;;;;;;;;;9.10;99.90;;;;;;5093106;28;20015;-69
2022/08/23 06:33:14;;;;;;;;;;;9.00;99.90;;;;;;5093381;28;19964;-69
2022/08/23 06:35:41;;;;;;;;;;;9.10;99.90;;;;;;5093235;28;20402;-68
2022/08/23 06:38:07;;;;;;;;;;;9.20;99.90;;;;;;5093156;28;19908;-68
2022/08/23 06:40:35;;;;;;;;;;;9.10;99.90;;;;;;5093219;28;20279;-68
2022/08/23 06:43:03;;;;;;;;;;;9.10;99.90;;;;;;5093168;28;19978;-68
2022/08/23 06:45:30;;;;;;;;;;;9.10;99.90;;;;;;5092828;28;19927;-69
2022/08/23 06:47:57;;;;;;;;;;;9.00;99.90;;;;;;5093171;28;19908;-69
2022/08/23 06:50:23;;;;;;;;;;;9.00;99.90;;;;;;5092842;28;19935;-69
2022/08/23 06:52:51;;;;;;;;;;;9.10;99.90;;;;;;5090074;28;20319;-69
2022/08/23 06:55:18;;;;;;;;;;;9.00;99.90;;;;;;5090933;28;19912;-69
2022/08/23 06:57:45;;;;;;;;;;;9.00;99.90;;;;;;5090954;28;19915;-69
2022/08/23 07:00:12;;;;;;;;;;;9.00;99.90;;;;;;5090772;28;20057;-69
2022/08/23 07:02:38;;;;;;;;;;;9.00;99.90;;;;;;5091042;28;19908;-68
2022/08/23 07:05:05;;;;;;;;;;;9.00;99.90;;;;;;5090514;28;20312;-68
2022/08/23 07:07:32;;;;;;;;;;;8.90;99.90;;;;;;5092349;28;20015;-68
2022/08/23 07:09:58;;;;;;;;;;;8.90;99.90;;;;;;5094692;28;19915;-68
2022/08/23 07:12:25;;;;;;;;;;;8.90;99.90;;;;;;5094299;28;19909;-69
2022/08/23 07:14:52;;;;;;;;;;;8.90;99.90;;;;;;5094513;28;19920;-68
2022/08/23 07:17:18;;;;;;;;;;;8.90;99.90;;;;;;5093993;28;19912;-68
2022/08/23 07:19:45;;;;;;;;;;;8.80;99.90;;;;;;5094400;28;20291;-68
2022/08/23 07:22:12;;;;;;;;;;;8.80;99.90;;;;;;5094214;28;20270;-68
2022/08/23 07:24:39;;;;;;;;;;;8.80;99.90;;;;;;5094436;28;20290;-68
2022/08/23 07:27:08;;;;;;;;;;;8.90;99.90;;;;;;5094441;28;19965;-68
2022/08/23 07:29:38;;;;;;;;;;;8.80;99.90;;;;;;5094126;28;19915;-68
2022/08/23 07:32:05;;;;;;;;;;;8.80;99.90;;;;;;5093685;28;19916;-68
2022/08/23 07:34:32;;;;;;;;;;;8.90;99.90;;;;;;5094094;28;19913;-69
2022/08/23 07:37:00;;;;;;;;;;;8.90;99.90;;;;;;5094207;28;19912;-68
2022/08/23 07:39:27;;;;;;;;;;;8.90;99.90;;;;;;5094063;28;19958;-67
2022/08/23 07:41:53;;;;;;;;;;;8.90;99.90;;;;;;5094084;28;19923;-68
2022/08/23 07:44:20;;;;;;;;;;;9.10;99.90;;;;;;5093337;28;19969;-69
2022/08/23 07:46:47;;;;;;;;;;;9.00;99.90;;;;;;5093635;28;19999;-67
2022/08/23 07:49:14;;;;;;;;;;;9.00;99.90;;;;;;5094054;28;19908;-68
2022/08/23 07:51:44;;;;;;;;;;;9.10;99.90;;;;;;5094000;28;19915;-68
2022/08/23 07:54:11;;;;;;;;;;;9.00;99.90;;;;;;5076155;28;20389;-69
2022/08/23 07:56:38;;;;;;;;;;;9.10;99.90;;;;;;5073504;28;19908;-68
2022/08/23 07:59:05;;;;;;;;;;;9.10;99.90;;;;;;5073452;28;19908;-68
2022/08/23 08:01:32;;;;;;;;;;;9.10;99.90;;;;;;5073289;28;19952;-68
2022/08/23 08:04:00;;;;;;;;;;;9.10;99.90;;;;;;5073436;28;20019;-68
2022/08/23 08:06:33;;;;;;;;;;;9.00;99.90;;;;;;5073820;28;19955;-68
2022/08/23 08:09:00;;;;;;;;;;;9.00;99.90;;;;;;5072819;28;19919;-68
2022/08/23 08:11:29;;;;;;;;;;;8.90;99.90;;;;;;5073369;28;19916;-68
2022/08/23 08:13:55;;;;;;;;;;;8.80;99.90;;;;;;5073159;28;20362;-68
2022/08/23 08:16:24;;;;;;;;;;;8.80;99.90;;;;;;5072885;28;19916;-68
2022/08/23 08:18:51;;;;;;;;;;;8.80;99.90;;;;;;5071672;28;19920;-68
2022/08/23 08:21:18;;;;;;;;;;;8.80;99.90;;;;;;5073139;28;20367;-68
2022/08/23 08:23:44;;;;;;;;;;;8.80;99.90;;;;;;5072909;28;20358;-68
2022/08/23 08:26:11;;;;;;;;;;;8.70;99.90;;;;;;5072825;28;19912;-68
2022/08/23 08:28:38;;;;;;;;;;;8.70;99.90;;;;;;5072894;28;19908;-69
2022/08/23 08:31:05;;;;;;;;;;;8.80;99.90;;;;;;5072841;28;20339;-69
2022/08/23 08:33:32;;;;;;;;;;;8.70;99.90;;;;;;5072653;28;19912;-68
2022/08/23 08:36:00;;;;;;;;;;;8.80;99.90;;;;;;5072906;28;19909;-69
2022/08/23 08:38:26;;;;;;;;;;;8.80;99.90;;;;;;5072349;28;19931;-69
2022/08/23 08:41:00;;;;;;;;;;;8.70;99.90;;;;;;5072914;28;19909;-68
2022/08/23 08:43:42;;;;;;;;;;;8.70;99.90;;;;;;5072593;28;19918;-68
2022/08/23 08:46:13;;;;;;;;;;;8.70;99.90;;;;;;5071924;28;19966;-69
2022/08/23 08:48:43;;;;;;;;;;;8.60;99.90;;;;;;5072715;28;19920;-68
2022/08/23 08:51:15;;;;;;;;;;;8.60;99.90;;;;;;5072660;28;19958;-67
2022/08/23 08:53:45;;;;;;;;;;;8.60;99.90;;;;;;5072284;28;19912;-68
2022/08/23 08:56:20;;;;;;;;;;;8.70;99.90;;;;;;5072355;28;19912;-69
2022/08/23 08:58:52;;;;;;;;;;;8.50;99.90;;;;;;5072082;28;19969;-68
2022/08/23 09:01:19;;;;;;;;;;;8.50;99.90;;;;;;5072095;28;20381;-68
2022/08/23 09:03:47;;;;;;;;;;;8.50;99.90;;;;;;5074181;28;19973;-69
2022/08/23 09:06:30;;;;;;;;;;;8.50;99.90;;;;;;5073564;28;19908;-68
2022/08/23 09:09:08;;;;;;;;;;;8.50;99.90;;;;;;5074435;28;19999;-69
2022/08/23 09:11:40;;;;;;;;;;;8.50;99.90;;;;;;5074347;28;19974;-69
2022/08/23 09:14:13;;;;;;;;;;;8.40;99.90;;;;;;5073963;28;19909;-68
2022/08/23 09:16:58;;;;;;;;;;;8.40;99.90;;;;;;5074185;28;20367;-69
2022/08/23 09:19:25;;;;;;;;;;;8.30;99.90;;;;;;5074524;28;19951;-68
2022/08/23 09:22:00;;;;;;;;;;;8.30;99.90;;;;;;5074229;28;20286;-68
2022/08/23 09:24:27;;;;;;;;;;;8.30;99.90;;;;;;5076128;28;19917;-68
2022/08/23 09:26:55;;;;;;;;;;;8.30;99.90;;;;;;5079293;28;19909;-69
2022/08/23 09:29:30;;;;;;;;;;;8.30;99.90;;;;;;5078539;28;20021;-69
2022/08/23 09:32:01;;;;;;;;;;;8.20;99.90;;;;;;5075298;28;19909;-69
2022/08/23 09:34:35;;;;;;;;;;;8.30;99.90;;;;;;5074676;28;19962;-69
2022/08/23 09:37:19;;;;;;;;;;;8.20;99.90;;;;;;5074612;28;20321;-69
2022/08/23 09:39:50;;;;;;;;;;;8.20;99.90;;;;;;5076421;28;19923;-69
2022/08/23 09:42:31;;;;;;;;;;;8.20;99.90;;;;;;5074354;28;19909;-69
2022/08/23 09:44:59;;;;;;;;;;;8.20;99.90;;;;;;5073749;28;20058;-68
2022/08/23 09:47:39;;;;;;;;;;;8.10;99.90;;;;;;5072733;28;20282;-68
2022/08/23 09:50:23;;;;;;;;;;;8.00;99.90;;;;;;5073525;28;19995;-69
2022/08/23 09:52:54;;;;;;;;;;;8.00;99.90;;;;;;5073081;28;19908;-69
2022/08/23 09:55:30;;;;;;;;;;;8.10;99.90;;;;;;5073785;28;19915;-69
2022/08/23 09:57:58;;;;;;;;;;;8.00;99.90;;;;;;5073597;28;19931;-69
2022/08/23 10:00:26;;;;;;;;;;;8.00;99.90;;;;;;5073119;28;19915;-69
2022/08/23 10:02:56;;;;;;;;;;;8.00;99.90;;;;;;5073364;28;19916;-69
2022/08/23 10:05:35;;;;;;;;;;;7.90;99.90;;;;;;5072178;28;20321;-69
2022/08/23 10:08:03;;;;;;;;;;;7.90;99.90;;;;;;5073342;28;20351;-69
2022/08/23 10:10:30;;;;;;;;;;;8.00;99.90;;;;;;5073844;28;19916;-69
2022/08/23 10:12:57;;;;;;;;;;;8.00;99.90;;;;;;5073356;28;19970;-68
2022/08/23 10:15:36;;;;;;;;;;;8.00;99.90;;;;;;5073373;28;19909;-69
2022/08/23 10:18:35;;;;;;;;;;;7.90;99.90;;;;;;5073164;28;20432;-69
2022/08/23 10:21:04;;;;;;;;;;;7.90;99.90;;;;;;5060367;28;20011;-69
2022/08/23 10:23:39;;;;;;;;;;;7.90;99.90;;;;;;5073059;28;19917;-69
2022/08/23 10:26:06;;;;;;;;;;;7.90;99.90;;;;;;5072959;28;20003;-69
2022/08/23 10:31:27;;;;;;;;;;;7.90;99.90;;;;;;5071171;28;20378;-69
2022/08/23 10:34:16;;;;;;;;;;;7.90;99.90;;;;;;5071070;28;19999;-69
2022/08/23 10:37:06;;;;;;;;;;;7.90;99.90;;;;;;5070519;28;19936;-68
2022/08/23 10:39:32;;;;;;;;;;;7.90;99.90;;;;;;5060422;28;19969;-68
2022/08/23 10:42:10;;;;;;;;;;;7.80;99.90;;;;;;5071417;28;20387;-69
2022/08/23 10:44:57;;;;;;;;;;;7.80;99.90;;;;;;5074679;28;20283;-68
2022/08/23 10:47:30;;;;;;;;;;;7.80;99.90;;;;;;5074941;28;19917;-69
2022/08/23 10:49:59;;;;;;;;;;;7.80;99.90;;;;;;5074787;28;19916;-69
2022/08/23 10:52:29;;;;;;;;;;;7.60;99.90;;;;;;5074202;28;19916;-69
2022/08/23 10:55:04;;;;;;;;;;;7.70;99.90;;;;;;5074439;28;19909;-69
2022/08/23 10:57:39;;;;;;;;;;;7.70;99.90;;;;;;5074823;28;19950;-69
2022/08/23 11:00:08;;;;;;;;;;;7.70;99.90;;;;;;5074325;28;19916;-69
2022/08/23 11:02:44;;;;;;;;;;;7.60;99.90;;;;;;5074581;28;20000;-68
2022/08/23 11:05:11;;;;;;;;;;;7.60;99.90;;;;;;5074144;28;20032;-70
2022/08/23 11:07:41;;;;;;;;;;;7.60;99.90;;;;;;5074203;28;20278;-69
2022/08/23 11:10:26;;;;;;;;;;;7.50;99.90;;;;;;5074275;28;19916;-70
2022/08/23 11:13:11;;;;;;;;;;;7.60;99.90;;;;;;5074333;28;20003;-69
2022/08/23 11:15:42;;;;;;;;;;;7.70;99.90;;;;;;5074519;28;19934;-69
2022/08/23 11:18:28;;;;;;;;;;;7.70;99.90;;;;;;5074215;28;19919;-69
2022/08/23 11:20:58;;;;;;;;;;;7.60;99.90;;;;;;5069218;28;19908;-68
2022/08/23 11:23:31;;;;;;;;;;;7.60;99.90;;;;;;5072949;28;19916;-69
2022/08/23 11:25:57;;;;;;;;;;;7.70;99.90;;;;;;5074225;28;19912;-69
2022/08/23 11:28:27;;;;;;;;;;;7.60;99.90;;;;;;5073740;28;20313;-69
2022/08/23 11:30:57;;;;;;;;;;;7.70;99.90;;;;;;5074166;28;19995;-68
2022/08/23 11:33:25;;;;;;;;;;;7.60;99.90;;;;;;5073787;28;19912;-68
2022/08/23 11:35:53;;;;;;;;;;;7.60;99.90;;;;;;5073449;28;19912;-68
2022/08/23 11:38:38;;;;;;;;;;;7.50;99.90;;;;;;5073728;28;19908;-69
2022/08/23 11:41:31;;;;;;;;;;;7.50;99.90;;;;;;5073886;28;19909;-69
2022/08/23 11:44:18;;;;;;;;;;;7.50;99.90;;;;;;5071011;28;19943;-68
2022/08/23 11:46:54;;;;;;;;;;;7.40;99.90;;;;;;5073256;28;20364;-68
2022/08/23 11:49:21;;;;;;;;;;;7.50;99.90;;;;;;5073433;28;19920;-68
2022/08/23 11:51:54;;;;;;;;;;;7.50;99.90;;;;;;5075413;28;19909;-68
2022/08/23 11:54:23;;;;;;;;;;;7.60;99.90;;;;;;5108031;28;19916;-68
2022/08/23 11:57:05;;;;;;;;;;;7.60;99.90;;;;;;5073392;28;19909;-67
2022/08/23 11:59:34;;;;;;;;;;;7.60;99.90;;;;;;5073388;28;20409;-68
2022/08/23 12:02:19;;;;;;;;;;;7.50;99.90;;;;;;5073364;28;19909;-68
2022/08/23 12:04:51;;;;;;;;;;;7.50;99.90;;;;;;5072773;28;19927;-68
2022/08/23 12:07:37;;;;;;;;;;;7.70;99.90;;;;;;5073361;28;20394;-68
2022/08/23 12:10:04;;;;;;;;;;;7.60;99.90;;;;;;5072781;28;19908;-68
2022/08/23 12:12:33;;;;;;;;;;;7.60;99.90;;;;;;5073380;28;19912;-68
2022/08/23 12:15:01;;;;;;;;;;;7.60;99.90;;;;;;5073174;28;19908;-68
2022/08/23 12:17:28;;;;;;;;;;;7.60;99.90;;;;;;5073330;28;19908;-68
2022/08/23 12:19:57;;;;;;;;;;;7.70;99.90;;;;;;5072540;28;19990;-68
2022/08/23 12:22:28;;;;;;;;;;;7.70;99.90;;;;;;5072625;28;19908;-68
2022/08/23 12:25:02;;;;;;;;;;;7.70;99.90;;;;;;5073012;28;19916;-68
2022/08/23 12:27:40;;;;;;;;;;;7.70;99.90;;;;;;5073113;28;20302;-67
2022/08/23 12:30:10;;;;;;;;;;;7.70;99.90;;;;;;5072698;28;19916;-67
2022/08/23 12:32:41;;;;;;;;;;;7.80;99.90;;;;;;5072901;28;19943;-68
2022/08/23 12:35:12;;;;;;;;;;;7.60;99.90;;;;;;5071985;28;19932;-67
2022/08/23 12:37:54;;;;;;;;;;;7.60;99.90;;;;;;5072889;28;19955;-67
2022/08/23 12:40:37;;;;;;;;;;;7.60;99.90;;;;;;5072705;28;20589;-67
2022/08/23 12:43:10;;;;;;;;;;;7.60;99.90;;;;;;5072646;28;19912;-67
2022/08/23 12:45:41;;;;;;;;;;;7.70;99.90;;;;;;5072666;28;19928;-67
2022/08/23 12:48:09;;;;;;;;;;;7.70;99.90;;;;;;5072506;28;19966;-68
2022/08/23 12:50:40;;;;;;;;;;;7.70;99.90;;;;;;5072118;28;19912;-68
2022/08/23 12:53:11;;;;;;;;;;;7.70;99.90;;;;;;5072898;28;19931;-68
2022/08/23 12:55:47;;;;;;;;;;;7.80;99.90;;;;;;5074592;28;19915;-68
2022/08/23 12:58:16;;;;;;;;;;;7.70;99.90;;;;;;5074210;28;19909;-67
2022/08/23 13:00:51;;;;;;;;;;;7.70;99.90;;;;;;5074439;28;19995;-68
2022/08/23 13:03:20;;;;;;;;;;;7.70;99.90;;;;;;5074496;28;19942;-68
2022/08/23 13:05:49;;;;;;;;;;;7.60;99.90;;;;;;5073877;28;19912;-68
2022/08/23 13:08:21;;;;;;;;;;;7.70;99.90;;;;;;5074139;28;19908;-68
2022/08/23 13:10:48;;;;;;;;;;;7.70;99.90;;;;;;5074297;28;19916;-68
2022/08/23 13:13:18;;;;;;;;;;;7.70;99.90;;;;;;5074207;28;19909;-68
2022/08/23 13:15:52;;;;;;;;;;;7.70;99.90;;;;;;5074265;28;19908;-68
2022/08/23 13:18:27;;;;;;;;;;;7.70;99.90;;;;;;5073993;28;20378;-68
2022/08/23 13:21:26;;;;;;;;;;;7.60;99.90;;;;;;5074194;28;19908;-68
2022/08/23 13:23:56;;;;;;;;;;;7.70;99.90;;;;;;5072706;28;19923;-68
2022/08/23 13:26:28;;;;;;;;;;;7.80;99.90;;;;;;5073920;28;20362;-67
2022/08/23 13:29:03;;;;;;;;;;;7.80;99.90;;;;;;5073908;28;19915;-67
2022/08/23 13:31:48;;;;;;;;;;;7.80;99.90;;;;;;5074004;28;20588;-67
2022/08/23 13:34:32;;;;;;;;;;;7.90;99.90;;;;;;5073785;28;19915;-67
2022/08/23 13:37:01;;;;;;;;;;;7.90;99.90;;;;;;5073843;28;20011;-68
2022/08/23 13:39:29;;;;;;;;;;;8.00;99.90;;;;;;5073793;28;19908;-68
2022/08/23 13:41:56;;;;;;;;;;;8.00;99.90;;;;;;5073817;28;19908;-67
2022/08/23 13:44:24;;;;;;;;;;;8.00;99.90;;;;;;5073394;28;19975;-68
2022/08/23 13:46:51;;;;;;;;;;;8.00;99.90;;;;;;5073541;28;20035;-68
2022/08/23 13:49:23;;;;;;;;;;;8.10;99.90;;;;;;5073631;28;19954;-67
2022/08/23 13:51:59;;;;;;;;;;;8.10;99.90;;;;;;5073777;28;20383;-67
2022/08/23 13:54:26;;;;;;;;;;;8.10;99.90;;;;;;5073461;28;19909;-67
2022/08/23 13:56:59;;;;;;;;;;;8.20;99.90;;;;;;5073553;28;20319;-67
2022/08/23 13:59:28;;;;;;;;;;;8.20;99.90;;;;;;5073332;28;20363;-67
2022/08/23 14:01:55;;;;;;;;;;;8.20;99.90;;;;;;5073451;28;20011;-67
2022/08/23 14:04:22;;;;;;;;;;;8.20;99.90;;;;;;5073229;28;20367;-67
2022/08/23 14:06:49;;;;;;;;;;;8.30;99.90;;;;;;5073508;28;20385;-67
2022/08/23 14:09:16;;;;;;;;;;;8.40;99.90;;;;;;5073346;28;20275;-67
2022/08/23 14:11:42;;;;;;;;;;;8.30;99.90;;;;;;5073356;28;20367;-67
2022/08/23 14:14:10;;;;;;;;;;;8.30;99.90;;;;;;5073149;28;20377;-67
2022/08/23 14:16:37;;;;;;;;;;;8.40;99.90;;;;;;5072418;28;19970;-67
2022/08/23 14:19:05;;;;;;;;;;;8.40;99.90;;;;;;5073283;28;19908;-67
2022/08/23 14:21:31;;;;;;;;;;;8.40;99.90;;;;;;5073273;28;20380;-67
2022/08/23 14:23:58;;;;;;;;;;;8.40;99.90;;;;;;5073270;28;19916;-67
2022/08/23 14:26:25;;;;;;;;;;;8.50;99.90;;;;;;5073121;28;19915;-67
2022/08/23 14:28:51;;;;;;;;;;;8.50;99.90;;;;;;5073097;28;19913;-67
2022/08/23 14:31:19;;;;;;;;;;;8.50;99.90;;;;;;5073194;28;19917;-68
2022/08/23 14:33:46;;;;;;;;;;;8.60;99.90;;;;;;5073256;28;20328;-67
2022/08/23 14:36:13;;;;;;;;;;;8.60;99.90;;;;;;5072935;28;19908;-67
2022/08/23 14:38:40;;;;;;;;;;;8.70;99.90;;;;;;5073179;28;19908;-68
2022/08/23 14:41:08;;;;;;;;;;;8.70;99.90;;;;;;5073007;28;19908;-69
2022/08/23 14:43:35;;;;;;;;;;;8.80;99.90;;;;;;5072792;28;19917;-67
2022/08/23 14:46:02;;;;;;;;;;;8.90;99.90;;;;;;5072730;28;19925;-67
2022/08/23 14:48:29;;;;;;;;;;;9.00;99.90;;;;;;5073124;28;20007;-68
2022/08/23 14:50:56;;;;;;;;;;;9.00;99.90;;;;;;5072895;28;19915;-67
2022/08/23 14:53:26;;;;;;;;;;;9.00;99.90;;;;;;5072919;28;19909;-68